createdAt,value
2023-02-24T00:01:51.630Z,10.60
2023-02-24T00:04:20.667Z,8.47
2023-02-24T00:06:48.029Z,9.33
2023-02-24T00:09:33.510Z,8.23
2023-02-24T00:12:02.357Z,9.80
2023-02-24T00:14:33.424Z,15.23
2023-02-24T00:17:00.480Z,14.67
2023-02-24T00:19:32.667Z,10.63
2023-02-24T00:22:03.378Z,12.50
2023-02-24T00:24:30.575Z,12.63
2023-02-24T00:27:00.658Z,10.80
2023-02-24T00:29:29.115Z,13.23
2023-02-24T00:32:01.171Z,8.97
2023-02-24T00:34:34.026Z,11.30
2023-02-24T00:37:01.405Z,11.73
2023-02-24T00:39:30.834Z,9.83
2023-02-24T00:42:07.024Z,9.50
2023-02-24T00:44:47.304Z,10.04
2023-02-24T00:47:16.497Z,12.20
2023-02-24T00:49:43.739Z,11.27
2023-02-24T00:52:20.773Z,11.90
2023-02-24T00:54:48.824Z,13.93
2023-02-24T00:57:18.304Z,9.57
2023-02-24T00:59:47.868Z,10.57
2023-02-24T01:02:14.907Z,8.60
2023-02-24T01:04:41.584Z,12.33
2023-02-24T01:07:11.248Z,10.83
2023-02-24T01:09:39.762Z,10.17
2023-02-24T01:12:30.097Z,9.80
2023-02-24T01:14:56.657Z,12.80
2023-02-24T01:17:23.896Z,10.63
2023-02-24T01:19:50.782Z,8.47
2023-02-24T01:22:19.726Z,12.47
2023-02-24T01:24:47.078Z,8.33
2023-02-24T01:27:17.496Z,10.33
2023-02-24T01:29:44.666Z,8.77
2023-02-24T01:32:17.427Z,12.93
2023-02-24T01:34:44.652Z,8.30
2023-02-24T01:37:16.516Z,11.17
2023-02-24T01:39:46.538Z,8.37
2023-02-24T01:42:19.812Z,11.57
2023-02-24T01:44:46.607Z,11.30
2023-02-24T01:47:14.618Z,10.17
2023-02-24T01:49:46.861Z,7.90
2023-02-24T01:52:34.865Z,6.90
2023-02-24T01:55:09.254Z,8.97
2023-02-24T01:57:38.795Z,10.60
2023-02-24T02:00:37.012Z,8.87
2023-02-24T02:03:32.518Z,11.10
2023-02-24T02:06:05.626Z,8.37
2023-02-24T02:08:32.776Z,9.10
2023-02-24T02:11:04.803Z,9.07
2023-02-24T02:13:31.682Z,8.50
2023-02-24T02:16:17.146Z,12.10
2023-02-24T02:18:56.288Z,9.37
2023-02-24T02:21:49.922Z,11.20
2023-02-24T02:24:25.961Z,10.70
2023-02-24T02:27:11.464Z,9.70
2023-02-24T02:29:56.721Z,10.13
2023-02-24T02:32:38.709Z,9.03
2023-02-24T02:35:37.094Z,10.80
2023-02-24T02:38:06.615Z,9.57
2023-02-24T02:40:54.381Z,7.90
2023-02-24T02:43:31.422Z,6.90
2023-02-24T02:46:14.901Z,7.80
2023-02-24T02:48:58.426Z,7.13
2023-02-24T02:51:29.946Z,7.40
2023-02-24T02:54:08.550Z,5.33
2023-02-24T02:56:41.992Z,5.80
2023-02-24T02:59:12.732Z,5.80
2023-02-24T03:01:43.689Z,8.33
2023-02-24T03:04:12.218Z,6.83
2023-02-24T03:06:46.212Z,6.87
2023-02-24T03:09:42.699Z,5.60
2023-02-24T03:12:15.282Z,7.40
2023-02-24T03:14:51.248Z,9.80
2023-02-24T03:17:26.195Z,9.87
2023-02-24T03:20:17.566Z,8.90
2023-02-24T03:22:52.303Z,9.35
2023-02-24T03:25:25.866Z,9.53
2023-02-24T03:27:57.194Z,7.50
2023-02-24T03:30:32.665Z,7.40
2023-02-24T03:33:06.184Z,7.07
2023-02-24T03:35:38.322Z,12.57
2023-02-24T03:38:06.590Z,17.37
2023-02-24T03:40:36.084Z,9.90
2023-02-24T03:43:26.172Z,10.83
2023-02-24T03:45:53.195Z,22.93
2023-02-24T03:48:20.364Z,30.70
2023-02-24T03:50:47.238Z,18.97
2023-02-24T03:53:20.812Z,19.97
2023-02-24T03:55:54.953Z,10.07
2023-02-24T03:58:47.208Z,11.37
2023-02-24T04:01:20.689Z,12.37
2023-02-24T04:03:54.487Z,14.00
2023-02-24T04:06:27.193Z,14.33
2023-02-24T04:08:53.767Z,9.43
2023-02-24T04:11:24.177Z,11.30
2023-02-24T04:13:55.786Z,12.03
2023-02-24T04:16:29.007Z,11.40
2023-02-24T04:19:05.157Z,12.87
2023-02-24T04:21:32.302Z,11.43
2023-02-24T04:24:00.981Z,10.90
2023-02-24T04:26:27.993Z,11.60
2023-02-24T04:28:55.490Z,9.43
2023-02-24T04:31:23.388Z,17.03
2023-02-24T04:33:50.564Z,15.03
2023-02-24T04:36:18.524Z,16.83
2023-02-24T04:38:46.019Z,17.50
2023-02-24T04:41:21.218Z,16.37
2023-02-24T04:43:50.918Z,13.70
2023-02-24T04:46:18.861Z,14.87
2023-02-24T04:48:45.518Z,23.23
2023-02-24T04:51:13.688Z,17.47
2023-02-24T04:53:40.761Z,15.80
2023-02-24T04:56:09.202Z,20.13
2023-02-24T04:58:38.019Z,21.17
2023-02-24T05:01:10.768Z,17.20
2023-02-24T05:03:38.719Z,20.40
2023-02-24T05:06:06.488Z,12.67
2023-02-24T05:08:33.935Z,15.63
2023-02-24T05:11:11.870Z,16.75
2023-02-24T05:13:38.537Z,15.20
2023-02-24T05:16:07.891Z,20.87
2023-02-24T05:18:37.350Z,16.27
2023-02-24T05:21:33.957Z,17.45
2023-02-24T05:24:06.632Z,16.60
2023-02-24T05:26:38.751Z,22.50
2023-02-24T05:29:06.908Z,20.73
2023-02-24T05:31:33.925Z,19.10
2023-02-24T05:34:03.594Z,18.70
2023-02-24T05:36:40.872Z,29.67
2023-02-24T05:39:12.112Z,24.83
2023-02-24T05:41:42.030Z,28.07
2023-02-24T05:44:13.099Z,30.10
2023-02-24T05:46:45.360Z,28.33
2023-02-24T05:49:23.517Z,32.73
2023-02-24T05:51:57.863Z,29.80
2023-02-24T05:54:30.273Z,34.93
2023-02-24T05:57:02.579Z,26.87
2023-02-24T05:59:33.071Z,24.53
2023-02-24T06:02:09.282Z,27.10
2023-02-24T06:04:45.875Z,24.70
2023-02-24T06:07:21.016Z,24.33
2023-02-24T06:09:53.788Z,29.37
2023-02-24T06:12:22.871Z,24.70
2023-02-24T06:14:49.491Z,23.47
2023-02-24T06:17:17.218Z,23.50
2023-02-24T06:19:49.457Z,22.17
2023-02-24T06:22:19.264Z,23.80
2023-02-24T06:24:46.382Z,18.90
2023-02-24T06:27:21.700Z,19.77
2023-02-24T06:29:53.972Z,15.73
2023-02-24T06:32:25.070Z,20.70
2023-02-24T06:34:52.573Z,21.67
2023-02-24T06:37:19.450Z,26.80
2023-02-24T06:39:46.430Z,26.70
2023-02-24T06:42:13.863Z,20.30
2023-02-24T06:44:41.548Z,20.73
2023-02-24T06:47:13.284Z,23.33
2023-02-24T06:49:40.340Z,18.63
2023-02-24T06:52:07.033Z,18.03
2023-02-24T06:54:36.046Z,19.53
2023-02-24T06:57:03.523Z,17.37
2023-02-24T06:59:30.184Z,15.63
2023-02-24T07:01:58.770Z,16.27
2023-02-24T07:04:28.274Z,13.00
2023-02-24T07:06:58.344Z,14.57
2023-02-24T07:09:26.478Z,14.63
2023-02-24T07:11:56.042Z,13.10
2023-02-24T07:14:27.563Z,12.20
2023-02-24T07:16:55.119Z,20.13
2023-02-24T07:19:27.572Z,13.27
2023-02-24T07:22:03.511Z,15.67
2023-02-24T07:24:40.696Z,16.57
2023-02-24T07:27:11.033Z,13.40
2023-02-24T07:29:38.036Z,17.17
2023-02-24T07:32:07.115Z,12.80
2023-02-24T07:34:34.201Z,16.33
2023-02-24T07:37:08.001Z,15.67
2023-02-24T07:39:36.963Z,16.13
2023-02-24T07:42:04.240Z,21.80
2023-02-24T07:44:31.103Z,17.17
2023-02-24T07:46:59.498Z,19.83
2023-02-24T07:49:30.043Z,15.70
2023-02-24T07:51:58.057Z,11.57
2023-02-24T07:54:27.863Z,15.27
2023-02-24T07:56:57.827Z,13.40
2023-02-24T07:59:32.945Z,17.63
2023-02-24T08:02:00.723Z,15.63
2023-02-24T08:04:30.312Z,14.27
2023-02-24T08:06:59.109Z,14.33
2023-02-24T08:09:46.062Z,16.27
2023-02-24T08:12:21.999Z,18.37
2023-02-24T08:14:52.068Z,17.60
2023-02-24T08:17:21.417Z,17.10
2023-02-24T08:19:49.684Z,23.00
2023-02-24T08:22:20.208Z,18.73
2023-02-24T08:24:55.725Z,17.33
2023-02-24T08:27:30.412Z,14.33
2023-02-24T08:29:58.315Z,19.73
2023-02-24T08:32:33.838Z,19.70
2023-02-24T08:35:03.105Z,23.27
2023-02-24T08:37:39.678Z,23.13
2023-02-24T08:40:32.359Z,22.60
2023-02-24T08:43:25.538Z,17.80
2023-02-24T08:45:59.437Z,16.00
2023-02-24T08:48:37.504Z,15.27
2023-02-24T08:51:28.804Z,20.40
2023-02-24T08:53:58.132Z,15.57
2023-02-24T08:56:27.697Z,18.13
2023-02-24T08:59:06.208Z,22.50
2023-02-24T09:01:36.273Z,19.40
2023-02-24T09:04:09.019Z,14.03
2023-02-24T09:06:40.826Z,16.67
2023-02-24T09:09:23.000Z,18.27
2023-02-24T09:12:00.093Z,18.57
2023-02-24T09:14:30.624Z,22.77
2023-02-24T09:17:11.378Z,16.10
2023-02-24T09:19:48.266Z,15.80
2023-02-24T09:22:31.458Z,23.87
2023-02-24T09:25:18.941Z,18.37
2023-02-24T09:28:08.200Z,19.40
2023-02-24T09:30:51.582Z,20.23
2023-02-24T09:33:28.512Z,18.67
2023-02-24T09:36:09.718Z,17.40
2023-02-24T09:38:59.323Z,21.94
2023-02-24T09:41:53.770Z,21.37
2023-02-24T09:44:36.055Z,17.80
2023-02-24T09:47:51.225Z,17.73
2023-02-24T09:51:02.839Z,16.57
2023-02-24T09:53:41.220Z,21.23
2023-02-24T09:56:16.958Z,18.50
2023-02-24T09:58:49.509Z,19.00
2023-02-24T10:01:43.149Z,19.63
2023-02-24T10:04:37.774Z,23.50
2023-02-24T10:07:07.318Z,20.57
2023-02-24T10:09:35.826Z,16.83
2023-02-24T10:12:11.841Z,19.70
2023-02-24T10:15:17.698Z,18.60
2023-02-24T10:17:58.149Z,19.70
2023-02-24T10:20:39.796Z,19.97
2023-02-24T10:23:15.463Z,18.03
2023-02-24T10:26:06.704Z,18.87
2023-02-24T10:28:46.083Z,22.90
2023-02-24T10:31:27.660Z,19.93
2023-02-24T10:34:06.485Z,19.93
2023-02-24T10:36:37.816Z,19.63
2023-02-24T10:39:26.317Z,24.43
2023-02-24T10:41:58.061Z,19.33
2023-02-24T10:44:39.081Z,18.90
2023-02-24T10:47:14.325Z,18.60
2023-02-24T10:49:57.320Z,21.83
2023-02-24T10:52:37.643Z,22.61
2023-02-24T10:55:28.200Z,20.57
2023-02-24T10:58:06.492Z,50.07
2023-02-24T11:01:06.772Z,22.70
2023-02-24T11:03:41.792Z,27.03
2023-02-24T11:06:38.061Z,26.60
2023-02-24T11:09:32.030Z,21.87
2023-02-24T11:12:25.302Z,25.03
2023-02-24T11:15:12.208Z,23.37
2023-02-24T11:17:51.121Z,24.80
2023-02-24T11:20:39.211Z,24.60
2023-02-24T11:23:20.630Z,21.53
2023-02-24T11:25:53.654Z,24.33
2023-02-24T11:28:26.291Z,21.23
2023-02-24T11:31:00.146Z,24.13
2023-02-24T11:33:32.940Z,24.13
2023-02-24T11:36:20.646Z,18.93
2023-02-24T11:39:08.350Z,22.97
2023-02-24T11:41:47.816Z,20.20
2023-02-24T11:44:25.987Z,20.03
2023-02-24T11:46:57.747Z,23.23
2023-02-24T11:49:50.353Z,23.87
2023-02-24T11:52:21.217Z,23.50
2023-02-24T11:54:55.185Z,21.03
2023-02-24T11:57:34.425Z,19.73
2023-02-24T12:00:13.403Z,21.97
2023-02-24T12:03:03.603Z,23.10
2023-02-24T12:05:39.207Z,25.87
2023-02-24T12:08:13.546Z,23.40
2023-02-24T12:10:47.641Z,25.00
2023-02-24T12:13:38.924Z,20.20
2023-02-24T12:16:23.701Z,20.70
2023-02-24T12:19:02.696Z,21.00
2023-02-24T12:22:00.252Z,24.60
2023-02-24T12:24:26.844Z,20.47
2023-02-24T12:27:16.191Z,25.53
2023-02-24T12:29:58.063Z,21.47
2023-02-24T12:32:46.844Z,24.43
2023-02-24T12:35:47.722Z,25.03
2023-02-24T12:38:32.870Z,21.50
2023-02-24T12:41:21.309Z,21.70
2023-02-24T12:43:59.028Z,22.57
2023-02-24T12:46:36.604Z,20.23
2023-02-24T12:49:12.873Z,18.50
2023-02-24T12:51:39.432Z,21.07
2023-02-24T12:54:09.892Z,21.57
2023-02-24T12:57:02.283Z,20.50
2023-02-24T12:59:32.468Z,20.60
2023-02-24T13:02:40.605Z,18.43
2023-02-24T13:05:17.228Z,21.80
2023-02-24T13:07:43.785Z,18.20
2023-02-24T13:10:41.703Z,21.73
2023-02-24T13:13:20.168Z,16.90
2023-02-24T13:15:52.801Z,20.17
2023-02-24T13:18:30.673Z,19.30
2023-02-24T13:21:22.610Z,18.87
2023-02-24T13:23:57.436Z,17.70
2023-02-24T13:26:25.969Z,18.93
2023-02-24T13:29:23.446Z,19.93
2023-02-24T13:31:52.285Z,23.07
2023-02-24T13:34:21.895Z,23.23
2023-02-24T13:36:49.679Z,18.60
2023-02-24T13:39:27.239Z,19.40
2023-02-24T13:42:21.830Z,21.77
2023-02-24T13:45:09.520Z,19.30
2023-02-24T13:47:48.004Z,22.73
2023-02-24T13:50:25.368Z,23.07
2023-02-24T13:53:23.816Z,22.43
2023-02-24T13:55:56.699Z,21.37
2023-02-24T13:58:32.308Z,22.00
2023-02-24T14:01:12.793Z,27.33
2023-02-24T14:03:42.281Z,23.67
2023-02-24T14:06:21.258Z,29.60
2023-02-24T14:08:54.303Z,21.33
2023-02-24T14:11:26.140Z,20.30
2023-02-24T14:13:57.448Z,22.23
2023-02-24T14:16:30.041Z,20.30
2023-02-24T14:19:04.047Z,25.47
2023-02-24T14:21:32.898Z,17.43
2023-02-24T14:24:20.526Z,21.50
2023-02-24T14:26:50.578Z,20.93
2023-02-24T14:29:23.314Z,23.37
2023-02-24T14:31:51.700Z,24.87
2023-02-24T14:34:21.189Z,29.37
2023-02-24T14:36:49.949Z,22.50
2023-02-24T14:39:24.618Z,19.43
2023-02-24T14:41:52.545Z,22.37
2023-02-24T14:44:20.577Z,23.03
2023-02-24T14:46:52.019Z,23.87
2023-02-24T14:49:27.319Z,22.60
2023-02-24T14:52:03.566Z,19.60
2023-02-24T14:54:40.171Z,19.60
2023-02-24T14:57:09.118Z,17.33
2023-02-24T14:59:38.589Z,20.07
2023-02-24T15:02:13.534Z,22.43
2023-02-24T15:04:43.815Z,21.07
2023-02-24T15:07:23.864Z,21.53
2023-02-24T15:09:51.795Z,20.03
2023-02-24T15:12:18.971Z,21.67
2023-02-24T15:14:51.941Z,17.40
2023-02-24T15:17:20.478Z,21.43
2023-02-24T15:19:49.237Z,22.50
2023-02-24T15:22:27.931Z,25.23
2023-02-24T15:24:57.075Z,23.30
2023-02-24T15:27:26.844Z,29.90
2023-02-24T15:30:04.625Z,30.53
2023-02-24T15:32:33.015Z,25.77
2023-02-24T15:34:59.929Z,26.07
2023-02-24T15:37:38.622Z,38.03
2023-02-24T15:40:18.780Z,39.33
2023-02-24T15:42:52.986Z,44.57
2023-02-24T15:45:28.696Z,23.27
2023-02-24T15:47:59.232Z,24.17
2023-02-24T15:50:26.139Z,27.40
2023-02-24T15:52:52.816Z,39.40
2023-02-24T15:55:20.723Z,34.43
2023-02-24T15:57:48.796Z,32.70
2023-02-24T16:00:17.800Z,55.40
2023-02-24T16:02:45.200Z,36.07
2023-02-24T16:05:15.878Z,55.93
2023-02-24T16:07:45.042Z,53.53
2023-02-24T16:10:18.477Z,37.50
2023-02-24T16:12:51.518Z,56.77
2023-02-24T16:15:24.000Z,44.33
2023-02-24T16:17:51.777Z,48.47
2023-02-24T16:20:27.378Z,42.30
2023-02-24T16:22:59.926Z,45.80
2023-02-24T16:25:27.676Z,35.30
2023-02-24T16:27:57.437Z,44.50
2023-02-24T16:30:29.804Z,37.03
2023-02-24T16:32:58.277Z,42.33
2023-02-24T16:35:26.031Z,37.90
2023-02-24T16:37:52.697Z,40.57
2023-02-24T16:40:33.105Z,47.70
2023-02-24T16:42:59.757Z,69.60
2023-02-24T16:45:28.565Z,70.47
2023-02-24T16:47:57.148Z,60.30
2023-02-24T16:50:28.152Z,54.60
2023-02-24T16:52:54.854Z,52.30
2023-02-24T16:55:21.917Z,49.53
2023-02-24T16:57:48.604Z,31.43
2023-02-24T17:00:16.845Z,46.73
2023-02-24T17:02:45.097Z,58.63
2023-02-24T17:05:24.277Z,36.27
2023-02-24T17:07:56.272Z,44.53
2023-02-24T17:10:33.698Z,61.29
2023-02-24T17:13:03.095Z,52.57
2023-02-24T17:15:29.886Z,48.83
2023-02-24T17:17:56.547Z,51.23
2023-02-24T17:20:23.238Z,62.20
2023-02-24T17:22:49.990Z,66.33
2023-02-24T17:25:23.022Z,54.77
2023-02-24T17:27:49.620Z,51.50
2023-02-24T17:30:19.705Z,54.63
2023-02-24T17:32:46.405Z,43.63
2023-02-24T17:35:13.149Z,71.87
2023-02-24T17:37:39.824Z,62.67
2023-02-24T17:40:07.192Z,63.90
2023-02-24T17:42:33.977Z,42.50
2023-02-24T17:45:00.610Z,40.00
2023-02-24T17:47:27.401Z,39.20
2023-02-24T17:49:54.020Z,58.10
2023-02-24T17:52:21.118Z,74.10
2023-02-24T17:54:47.826Z,64.07
2023-02-24T17:57:14.417Z,79.63
2023-02-24T17:59:43.335Z,38.20
2023-02-24T18:02:11.443Z,28.27
2023-02-24T18:04:38.728Z,46.93
2023-02-24T18:07:05.375Z,59.63
2023-02-24T18:09:32.026Z,55.07
2023-02-24T18:11:58.741Z,54.00
2023-02-24T18:14:25.499Z,57.33
2023-02-24T18:16:52.204Z,48.97
2023-02-24T18:19:18.876Z,47.57
2023-02-24T18:21:45.557Z,73.60
2023-02-24T18:24:12.708Z,163.73
2023-02-24T18:26:39.697Z,96.80
2023-02-24T18:29:06.345Z,44.63
2023-02-24T18:31:33.456Z,47.50
2023-02-24T18:34:00.461Z,57.10
2023-02-24T18:36:27.872Z,56.90
2023-02-24T18:38:57.128Z,47.80
2023-02-24T18:41:23.954Z,44.77
2023-02-24T18:43:52.474Z,43.40
2023-02-24T18:46:19.910Z,36.00
2023-02-24T18:48:47.458Z,35.40
2023-02-24T18:51:16.860Z,37.73
2023-02-24T18:53:43.586Z,37.73
2023-02-24T18:56:13.976Z,41.77
2023-02-24T18:58:41.114Z,40.80
2023-02-24T19:01:22.995Z,48.07
2023-02-24T19:03:51.129Z,43.10
2023-02-24T19:06:21.649Z,42.57
2023-02-24T19:08:50.934Z,45.90
2023-02-24T19:11:20.005Z,41.93
2023-02-24T19:13:47.812Z,41.30
2023-02-24T19:16:15.545Z,50.23
2023-02-24T19:18:42.419Z,44.53
2023-02-24T19:21:10.995Z,42.87
2023-02-24T19:23:38.290Z,82.20
2023-02-24T19:26:05.339Z,56.73
2023-02-24T19:28:31.945Z,60.27
2023-02-24T19:30:58.708Z,53.00
2023-02-24T19:33:25.326Z,49.60
2023-02-24T19:35:53.439Z,45.53
2023-02-24T19:38:22.191Z,49.57
2023-02-24T19:40:48.777Z,48.23
2023-02-24T19:43:15.368Z,67.77
2023-02-24T19:45:42.864Z,70.70
2023-02-24T19:48:10.479Z,67.70
2023-02-24T19:50:41.145Z,67.37
2023-02-24T19:53:10.386Z,76.03
2023-02-24T19:55:39.459Z,66.53
2023-02-24T19:58:06.077Z,60.00
2023-02-24T20:00:35.839Z,59.80
2023-02-24T20:03:05.327Z,63.70
2023-02-24T20:05:31.907Z,62.07
2023-02-24T20:07:59.335Z,69.00
2023-02-24T20:10:25.951Z,54.30
2023-02-24T20:12:52.627Z,56.37
2023-02-24T20:15:19.292Z,67.17
2023-02-24T20:17:46.852Z,59.17
2023-02-24T20:20:14.960Z,65.87
2023-02-24T20:22:41.657Z,63.87
2023-02-24T20:25:08.923Z,65.40
2023-02-24T20:27:35.958Z,61.90
2023-02-24T20:30:02.677Z,53.03
2023-02-24T20:32:29.373Z,55.93
2023-02-24T20:34:56.311Z,57.60
2023-02-24T20:37:23.101Z,75.67
2023-02-24T20:39:51.844Z,57.20
2023-02-24T20:42:18.433Z,59.53
2023-02-24T20:44:45.079Z,58.93
2023-02-24T20:47:11.662Z,63.97
2023-02-24T20:49:39.353Z,64.70
2023-02-24T20:52:06.229Z,59.80
2023-02-24T20:54:32.939Z,61.47
2023-02-24T20:56:59.486Z,66.37
2023-02-24T20:59:26.094Z,72.47
2023-02-24T21:01:52.759Z,57.77
2023-02-24T21:04:21.233Z,32.47
2023-02-24T21:06:48.299Z,45.57
2023-02-24T21:09:16.018Z,23.63
2023-02-24T21:11:42.730Z,46.53
2023-02-24T21:14:16.932Z,20.80
2023-02-24T21:16:43.667Z,19.27
2023-02-24T21:19:10.263Z,24.57
2023-02-24T21:21:36.910Z,45.73
2023-02-24T21:24:03.717Z,44.20
2023-02-24T21:26:30.302Z,28.00
2023-02-24T21:28:58.711Z,26.60
2023-02-24T21:31:26.674Z,22.03
2023-02-24T21:33:53.789Z,18.53
2023-02-24T21:36:21.737Z,23.37
2023-02-24T21:38:48.796Z,21.60
2023-02-24T21:41:16.060Z,26.93
2023-02-24T21:43:44.356Z,21.73
2023-02-24T21:46:16.049Z,20.73
2023-02-24T21:48:43.225Z,22.03
2023-02-24T21:51:12.028Z,19.63
2023-02-24T21:53:41.057Z,29.53
2023-02-24T21:56:20.912Z,21.77
2023-02-24T21:58:53.832Z,42.40
2023-02-24T22:01:25.977Z,27.07
2023-02-24T22:03:57.401Z,20.00
2023-02-24T22:06:26.217Z,24.33
2023-02-24T22:08:54.487Z,20.20
2023-02-24T22:11:21.765Z,18.63
2023-02-24T22:13:48.879Z,19.07
2023-02-24T22:16:19.111Z,18.87
2023-02-24T22:18:46.375Z,17.27
2023-02-24T22:21:17.330Z,20.83
2023-02-24T22:23:45.333Z,16.47
2023-02-24T22:26:12.607Z,20.47
2023-02-24T22:28:40.870Z,17.10
2023-02-24T22:31:08.860Z,19.87
2023-02-24T22:33:36.809Z,21.57
2023-02-24T22:36:04.980Z,21.10
2023-02-24T22:38:32.925Z,17.70
2023-02-24T22:41:00.595Z,18.83
2023-02-24T22:43:28.804Z,16.50
2023-02-24T22:46:00.774Z,19.77
2023-02-24T22:48:30.581Z,17.10
2023-02-24T22:50:59.888Z,19.23
2023-02-24T22:53:27.533Z,15.37
2023-02-24T22:55:54.532Z,20.70
2023-02-24T22:58:21.988Z,21.33
2023-02-24T23:00:48.761Z,19.73
2023-02-24T23:03:17.885Z,14.87
2023-02-24T23:05:59.346Z,17.50
2023-02-24T23:08:27.457Z,17.80
2023-02-24T23:10:54.904Z,17.13
2023-02-24T23:13:22.095Z,20.93
2023-02-24T23:15:49.290Z,16.07
2023-02-24T23:18:16.500Z,23.10
2023-02-24T23:20:44.921Z,17.87
2023-02-24T23:23:11.880Z,20.37
2023-02-24T23:25:38.925Z,17.20
2023-02-24T23:28:06.444Z,19.17
2023-02-24T23:30:33.181Z,17.07
2023-02-24T23:33:00.954Z,15.80
2023-02-24T23:35:27.584Z,15.43
2023-02-24T23:37:54.186Z,19.33
2023-02-24T23:40:26.074Z,15.90
2023-02-24T23:42:53.244Z,15.43
2023-02-24T23:45:20.082Z,17.50
2023-02-24T23:47:46.912Z,16.40
2023-02-24T23:50:13.700Z,14.77
2023-02-24T23:52:40.316Z,13.57
2023-02-24T23:55:07.253Z,14.63
2023-02-24T23:57:34.392Z,14.50
